Latest METARs, TAFs and NOTAMs for MYNN


---------------------------------------------------------------------------
	(OBSERVATIONS)
MYNN 282000Z 10005KT 9999 FEW016CB 32/24 A3005 RMK CB W-NW=
MYNN 281900Z 10006KT 9999 FEW016CB 34/24 A3006 RMK CB W-NW TCU
    SCT S
MYNN 281800Z 12005KT 9999 FEW016CB SCT018TCU 33/25 A3007  CB
    AN
---------------------------------------------------------------------------
	(TERMINAL AREA FORECAST)
MYNN 281500Z 2818/2918 08006KT 9999 FEW016CB SCT023=
---------------------------------------------------------------------------
	(NOTAMS)


MYNN A0068/13 VOR Y RWY 14 FEEDER RTE FM MAJUR TO MUNIE NOT AVBL
    VOR Y RWY 14 FEEDER RTE FM MELON TO MUNIE NOT AVBL. SFC -
    UNL, 19 APR 19:55 2013 UNTIL PERM. CREATED: 19 APR 19:51
    2013

MYNN A0069/13 VOR Y RWY 09 FEEDER RTE FM MAJUR TO MUSSE NOT AVBL
    REMOVE PROCEDURE NOTE 'RADAR REQUIRED' FM APP CHART. SFC
    - UNL, 19 APR 19:55 2013 UNTIL PERM. CREATED: 19 APR 19:52
    2013

MYNN A0070/13 VOR Y RWY 32 FEEDER RTE FM PRUNE TO WELKS NOT AVBL
    REMOVE PROCEDURE NOTE 'RADAR REQUIRED' FM APP CHART. SFC
    - UNL, 19 APR 19:55 2013 UNTIL PERM. CREATED: 19 APR 19:54
    2013

MYNN A0088/15 WEF JULY 01, 2015 ALL VFR AND IFR FLIGHTS OPR IN
    AND THRU NASSAU FIR/CTA ALL FLIGHTS ARRIVING AND DEPARTING
    MYNN ARE REQUIRED TO FILE A PLN WITH NASSAU FIS FLIGHT PLANS
    SUBMITTED DUR FLT SHOULD NORMALLY BE TRANSMITTED ON NASSAU
    RDO FREQ 128.00 MHZ OR 124.200 MHZ PRIOR TO 25 DME FM ZQA
    NON-COMPLIANT ACFT THAT INTEND TO OPR WI NASSAU CTA/FIR WILL
    NOT BE AUTHORIZED OR PERMITTED. 01 JUL 23:59 2015 UNTIL PERM.
    CREATED: 13 MAY 18:03 2015

MYNN A0108/15 INFORMATION LISTED IN AIC 3/2015 WITH THE EXCEPTION
    OF MYNN AND MYGF RNAV APCH PROC IN THE BAHAMAS ARE NOT AUTH
    DUE TO AIRSPACE CLASSIFICATION RESTRICTIONS. 01 JUN 18:00
    2015 UNTIL PERM. CREATED: 01 JUN 16:52 2015

MYNN A0185/16 ATS WILL ONLY ACCEPT NON-CLOSURE PLN'S TO MYSM
    MYCA MYCX MYCH MYCB MYAP MYCI MYCP MYMM MYRP MYLD MYLS DUE
    TO LACK OF COM. 30 JUN 18:00 2016 UNTIL 30 SEP 23:59 2016.
    CREATED: 30 JUN 18:13 2016

MYNN A0190/16 CHECKLIST (A) SERIES YEAR=2010 0277 YEAR=2013 0068
    0069 0070 YEAR=2015 0088 0108 YEAR=2016 0164 0165 0166 0167
    0168 0169 0170 0172 0173 0174 0175 0176 0177 0178 0179 0180
    0181 0182 0183 0184 0185 0186 0187 0188) LATEST PUBLICATIONS
    AIP AMDT 01/16 EFFECTIVE MAY 26, 2016 AIC 02/16. 01 JUL 15:30
    2016 UNTIL 29 JUL 23:59 2016. CREATED: 01 JUL 15:17 2016

MYNN B0020/16 CHECKLIST (B) SERIES YEAR=2015 0038 YEAR=2016 0008
    0011 0012 0013 0014 0015 0016 0017 0018 0019 LATEST PUBLICATIONS
    AIP AMDT 01/16 EFFECTIVE MAY 26, 2016 AIC 02/16. 01 JUL 16:00
    2016 UNTIL 29 JUL 23:59 2016. CREATED: 01 JUL 15:46 2016

---------------------------------------------------------------------------